Time;durP1;ratioP1;P1;durP2;ratioP2;P2;SDS_P1;SDS_P2;PMS_P1;PMS_P2;Temp;Humidity;BMP_temperature;BMP_pressure;BME280_temperature;BME280_humidity;BME280_pressure;Samples;Min_cycle;Max_cycle;Signal;HPM_P1;HPM_P2
2023/12/25 00:00:16;;;;;;;19.88;5.10;;;;;;;;;;4981863;28;20132;-61
2023/12/25 00:02:43;;;;;;;22.15;5.68;;;;;;;;;;4976393;28;20046;-62
2023/12/25 00:05:17;;;;;;;33.72;6.68;;;;;;;;;;4978792;28;20058;-61
2023/12/25 00:07:45;;;;;;;41.58;6.47;;;;;;;;;;4981824;28;20054;-61
2023/12/25 00:10:12;;;;;;;44.60;6.78;;;;;;;;;;4977167;28;20054;-63
2023/12/25 00:12:46;;;;;;;33.40;7.30;;;;;;;;;;4980398;28;20058;-62
2023/12/25 00:15:13;;;;;;;32.30;6.82;;;;;;;;;;4980765;28;20518;-63
2023/12/25 00:18:07;;;;;;;51.47;7.38;;;;;;;;;;4978116;28;20494;-62
2023/12/25 00:20:34;;;;;;;;;;;;;;;;;;4978774;28;20263;-63
2023/12/25 00:23:02;;;;;;;20.85;3.88;;;;;;;;;;4977232;28;19926;-57
2023/12/25 00:25:43;;;;;;;31.98;6.20;;;;;;;;;;4977622;28;20077;-54
2023/12/25 00:28:10;;;;;;;23.63;5.28;;;;;;;;;;4980817;28;20089;-58
2023/12/25 00:30:44;;;;;;;127.40;10.00;;;;;;;;;;4978149;28;20050;-59
2023/12/25 00:33:11;;;;;;;34.83;5.70;;;;;;;;;;4980427;28;20050;-57
2023/12/25 00:35:39;;;;;;;444.13;22.38;;;;;;;;;;4976664;28;20113;-57
2023/12/25 00:38:13;;;;;;;15.20;3.10;;;;;;;;;;4979148;28;20043;-63
2023/12/25 00:40:41;;;;;;;10.23;2.92;;;;;;;;;;4976404;28;20133;-63
2023/12/25 00:43:08;;;;;;;10.05;3.50;;;;;;;;;;4980488;28;20425;-63
2023/12/25 00:45:42;;;;;;;14.30;3.25;;;;;;;;;;4980233;28;20061;-64
2023/12/25 00:48:09;;;;;;;12.55;3.75;;;;;;;;;;4978908;28;20058;-57
2023/12/25 00:50:37;;;;;;;11.98;2.90;;;;;;;;;;4977270;28;20488;-68
2023/12/25 00:53:11;;;;;;;20.67;3.97;;;;;;;;;;4978698;28;20058;-68
2023/12/25 00:55:38;;;;;;;11.05;2.70;;;;;;;;;;4975640;28;20062;-68
2023/12/25 00:58:12;;;;;;;14.13;3.38;;;;;;;;;;4980178;28;20090;-68
2023/12/25 01:00:40;;;;;;;;;;;;;;;;;;4978879;28;20128;-68
2023/12/25 01:03:07;;;;;;;13.10;3.20;;;;;;;;;;4975471;28;20334;-67
2023/12/25 01:05:41;;;;;;;15.68;2.95;;;;;;;;;;4978221;28;20101;-58
2023/12/25 01:08:08;;;;;;;10.52;3.15;;;;;;;;;;4980719;28;20602;-56
2023/12/25 01:10:42;;;;;;;6.93;2.38;;;;;;;;;;4974536;28;20054;-58
2023/12/25 01:13:10;;;;;;;10.25;2.55;;;;;;;;;;4977322;28;20082;-58
2023/12/25 01:15:37;;;;;;;8.63;2.28;;;;;;;;;;4981208;28;20129;-62
2023/12/25 01:18:11;;;;;;;16.88;2.33;;;;;;;;;;4977098;28;20574;-64
2023/12/25 01:20:40;;;;;;;;;;;;;;;;;;4977729;28;20058;-56
2023/12/25 01:23:21;;;;;;;10.05;2.30;;;;;;;;;;4976412;28;20300;-55
2023/12/25 01:25:55;;;;;;;14.02;2.72;;;;;;;;;;4976565;28;20062;-56
2023/12/25 01:28:28;;;;;;;11.88;2.22;;;;;;;;;;4976470;28;20050;-55
2023/12/25 01:30:55;;;;;;;17.80;3.10;;;;;;;;;;4978099;28;20077;-54
2023/12/25 01:33:23;;;;;;;11.55;2.42;;;;;;;;;;4981150;28;20046;-55
2023/12/25 01:35:56;;;;;;;12.68;2.95;;;;;;;;;;4979048;28;20054;-57
2023/12/25 01:38:24;;;;;;;8.00;2.00;;;;;;;;;;4978228;28;20089;-59
2023/12/25 01:40:57;;;;;;;10.57;2.50;;;;;;;;;;4979403;28;20069;-59
2023/12/25 01:43:36;;;;;;;18.45;2.78;;;;;;;;;;4977316;28;20541;-56
2023/12/25 01:46:13;;;;;;;17.63;2.80;;;;;;;;;;4979449;28;20473;-50
2023/12/25 01:48:50;;;;;;;18.30;2.47;;;;;;;;;;4974947;28;20489;-69
2023/12/25 01:51:24;;;;;;;15.68;2.85;;;;;;;;;;4978776;28;20054;-68
2023/12/25 01:53:58;;;;;;;31.02;3.75;;;;;;;;;;4975714;28;20136;-69
2023/12/25 01:56:32;;;;;;;26.52;3.58;;;;;;;;;;4978130;28;20472;-69
2023/12/25 01:59:06;;;;;;;31.48;3.67;;;;;;;;;;4977543;28;20043;-69
2023/12/25 02:01:33;;;;;;;39.42;4.43;;;;;;;;;;4977055;28;20155;-69
2023/12/25 02:04:00;;;;;;;30.42;4.00;;;;;;;;;;4973695;28;20050;-48
2023/12/25 02:06:35;;;;;;;69.70;5.03;;;;;;;;;;4978111;28;20062;-49
2023/12/25 02:09:03;;;;;;;48.53;4.40;;;;;;;;;;4977328;28;20149;-47
2023/12/25 02:11:31;;;;;;;53.05;5.30;;;;;;;;;;4973560;28;20189;-52
2023/12/25 02:14:05;;;;;;;71.10;5.88;;;;;;;;;;4979057;28;20506;-56
2023/12/25 02:16:32;;;;;;;49.85;5.07;;;;;;;;;;4976781;28;20065;-62
2023/12/25 02:19:08;;;;;;;53.33;5.50;;;;;;;;;;4974450;28;20058;-63
2023/12/25 02:21:35;;;;;;;68.40;6.82;;;;;;;;;;4980330;28;20556;-64
2023/12/25 02:24:06;;;;;;;52.22;6.43;;;;;;;;;;4976596;28;20514;-64
2023/12/25 02:26:40;;;;;;;34.03;4.15;;;;;;;;;;4976043;28;20046;-64
2023/12/25 02:29:07;;;;;;;34.72;4.50;;;;;;;;;;4977099;28;20076;-63
2023/12/25 02:31:41;;;;;;;61.63;6.38;;;;;;;;;;4978598;28;20058;-54
2023/12/25 02:34:09;;;;;;;50.47;5.90;;;;;;;;;;4976222;28;20105;-56
2023/12/25 02:36:36;;;;;;;52.90;4.95;;;;;;;;;;4980210;28;20061;-52
2023/12/25 02:39:10;;;;;;;56.58;5.78;;;;;;;;;;4972531;28;20698;-50
2023/12/25 02:41:37;;;;;;;62.05;7.07;;;;;;;;;;4978075;28;20311;-49
2023/12/25 02:44:11;;;;;;;66.90;6.45;;;;;;;;;;4975813;28;20050;-64
2023/12/25 02:46:42;;;;;;;65.15;8.43;;;;;;;;;;4971717;28;20585;-61
2023/12/25 02:49:09;;;;;;;69.50;6.30;;;;;;;;;;4972820;28;20659;-59
2023/12/25 02:51:43;;;;;;;77.32;8.00;;;;;;;;;;4973619;28;20047;-62
2023/12/25 02:54:11;;;;;;;68.85;7.15;;;;;;;;;;4974814;28;20526;-59
2023/12/25 02:56:44;;;;;;;68.22;8.85;;;;;;;;;;4975509;28;20058;-62
2023/12/25 02:59:17;;;;;;;83.30;7.95;;;;;;;;;;4978215;28;20128;-62
2023/12/25 03:01:51;;;;;;;91.77;9.80;;;;;;;;;;4977640;28;20089;-62
2023/12/25 03:04:25;;;;;;;76.75;9.85;;;;;;;;;;4981583;28;20066;-62
2023/12/25 03:06:52;;;;;;;65.38;8.68;;;;;;;;;;4983073;28;20057;-61
2023/12/25 03:09:26;;;;;;;91.20;8.57;;;;;;;;;;4980046;28;20050;-60
2023/12/25 03:12:00;;;;;;;82.22;7.47;;;;;;;;;;4978934;28;20491;-56
2023/12/25 03:14:34;;;;;;;82.50;10.02;;;;;;;;;;4981948;28;20461;-63
2023/12/25 03:17:08;;;;;;;85.13;10.65;;;;;;;;;;4977529;28;20043;-63
2023/12/25 03:19:35;;;;;;;80.82;9.05;;;;;;;;;;4981041;28;20510;-64
2023/12/25 03:22:03;;;;;;;84.90;10.88;;;;;;;;;;4982380;28;20157;-61
2023/12/25 03:24:44;;;;;;;79.72;8.40;;;;;;;;;;4981015;28;20514;-61
2023/12/25 03:27:11;;;;;;;94.38;9.98;;;;;;;;;;4980183;28;20059;-62
2023/12/25 03:29:45;;;;;;;65.22;7.80;;;;;;;;;;4980036;28;20058;-60
2023/12/25 03:32:19;;;;;;;92.60;10.73;;;;;;;;;;4979522;28;20138;-60
2023/12/25 03:34:47;;;;;;;73.60;9.63;;;;;;;;;;4976734;28;20066;-60
2023/12/25 03:37:21;;;;;;;66.43;8.23;;;;;;;;;;4983424;28;20062;-60
2023/12/25 03:39:48;;;;;;;58.70;7.15;;;;;;;;;;4979683;28;20532;-62
2023/12/25 03:42:15;;;;;;;55.13;6.90;;;;;;;;;;4980702;28;20160;-63
2023/12/25 03:44:49;;;;;;;88.43;9.95;;;;;;;;;;4981006;28;20425;-62
2023/12/25 03:47:18;;;;;;;75.40;8.45;;;;;;;;;;4980885;28;20047;-62
2023/12/25 03:49:51;;;;;;;64.82;8.95;;;;;;;;;;4978640;28;20054;-63
2023/12/25 03:52:19;;;;;;;;;;;;;;;;;;4982655;28;20046;-62
2023/12/25 03:54:46;;;;;;;72.53;7.95;;;;;;;;;;4982686;28;19953;-62
2023/12/25 03:57:20;;;;;;;75.38;9.80;;;;;;;;;;4980896;28;20494;-69
2023/12/25 03:59:47;;;;;;;66.55;8.55;;;;;;;;;;4977703;28;20058;-69
2023/12/25 04:02:14;;;;;;;67.32;9.20;;;;;;;;;;4980543;28;20153;-69
2023/12/25 04:04:48;;;;;;;72.80;8.90;;;;;;;;;;4979278;28;20089;-69
2023/12/25 04:07:16;;;;;;;88.22;9.32;;;;;;;;;;4981233;28;20046;-50
2023/12/25 04:09:44;;;;;;;78.85;9.57;;;;;;;;;;4977771;28;20903;-50
2023/12/25 04:12:17;;;;;;;66.07;8.48;;;;;;;;;;4972562;28;20521;-48
2023/12/25 04:14:44;;;;;;;64.05;7.10;;;;;;;;;;4980743;28;20057;-49
2023/12/25 04:17:18;;;;;;;75.00;8.93;;;;;;;;;;4980761;28;20147;-48
2023/12/25 04:19:46;;;;;;;77.90;9.90;;;;;;;;;;4979209;28;20316;-47
2023/12/25 04:22:13;;;;;;;;;;;;;;;;;;4980025;28;20058;-48
2023/12/25 04:24:54;;;;;;;60.30;7.25;;;;;;;;;;4977848;28;19929;-58
2023/12/25 04:27:21;;;;;;;88.90;9.05;;;;;;;;;;4976920;28;20066;-57
2023/12/25 04:29:55;;;;;;;79.03;10.30;;;;;;;;;;4980725;28;20058;-57
2023/12/25 04:32:23;;;;;;;77.07;10.32;;;;;;;;;;4979605;28;20109;-58
2023/12/25 04:34:50;;;;;;;83.20;8.23;;;;;;;;;;4984956;28;20105;-49
2023/12/25 04:37:24;;;;;;;88.13;10.85;;;;;;;;;;4980072;28;20313;-63
2023/12/25 04:39:51;;;;;;;65.22;7.28;;;;;;;;;;4980364;28;20058;-68
2023/12/25 04:42:19;;;;;;;75.60;8.00;;;;;;;;;;4980299;28;20165;-68
2023/12/25 04:44:53;;;;;;;50.85;7.82;;;;;;;;;;4980395;28;20457;-68
2023/12/25 04:47:21;;;;;;;59.63;9.85;;;;;;;;;;4976694;28;20102;-68
2023/12/25 04:49:54;;;;;;;86.30;9.88;;;;;;;;;;4979342;28;20145;-68
2023/12/25 04:52:22;;;;;;;68.30;8.10;;;;;;;;;;4980118;28;20097;-68
2023/12/25 04:54:49;;;;;;;79.55;8.95;;;;;;;;;;4977538;28;20523;-52
2023/12/25 04:57:23;;;;;;;78.75;9.35;;;;;;;;;;4979745;28;20552;-49
2023/12/25 04:59:50;;;;;;;95.00;9.73;;;;;;;;;;4981350;28;20093;-51
2023/12/25 05:02:25;;;;;;;64.32;8.18;;;;;;;;;;4976397;28;20396;-53
2023/12/25 05:04:52;;;;;;;68.43;9.00;;;;;;;;;;4980730;28;20065;-60
2023/12/25 05:07:19;;;;;;;88.47;9.55;;;;;;;;;;4978426;28;20062;-63
2023/12/25 05:09:53;;;;;;;72.03;8.05;;;;;;;;;;4978952;28;20081;-63
2023/12/25 05:12:20;;;;;;;83.97;8.95;;;;;;;;;;4976834;28;20133;-63
2023/12/25 05:14:55;;;;;;;80.95;9.10;;;;;;;;;;4980288;28;20121;-63
2023/12/25 05:17:22;;;;;;;82.72;9.48;;;;;;;;;;4977552;28;20055;-63
2023/12/25 05:19:49;;;;;;;;;;;;;;;;;;4981472;28;20144;-63
2023/12/25 05:22:30;;;;;;;77.32;8.73;;;;;;;;;;4977419;28;19930;-62
2023/12/25 05:25:04;;;;;;;60.90;7.45;;;;;;;;;;4979786;28;20050;-62
2023/12/25 05:27:38;;;;;;;66.88;7.97;;;;;;;;;;4981568;28;20091;-61
2023/12/25 05:30:12;;;;;;;;;;;;;;;;;;4978992;28;20082;-62
2023/12/25 05:32:47;;;;;;;69.55;7.78;;;;;;;;;;4975203;28;19930;-51
2023/12/25 05:35:14;;;;;;;78.60;9.07;;;;;;;;;;4979794;28;20424;-59
2023/12/25 05:37:48;;;;;;;72.53;8.20;;;;;;;;;;4979345;28;20494;-58
2023/12/25 05:40:16;;;;;;;59.40;8.93;;;;;;;;;;4978105;28;20481;-59
2023/12/25 05:42:43;;;;;;;53.45;8.70;;;;;;;;;;4978169;28;20057;-58
2023/12/25 05:45:19;;;;;;;75.25;9.00;;;;;;;;;;4975938;28;20046;-56
2023/12/25 05:47:46;;;;;;;65.28;7.55;;;;;;;;;;4981396;28;20506;-58
2023/12/25 05:50:21;;;;;;;80.53;9.55;;;;;;;;;;4978385;28;20062;-69
2023/12/25 05:52:49;;;;;;;60.50;8.00;;;;;;;;;;4979454;28;20054;-68
2023/12/25 05:55:16;;;;;;;76.82;8.15;;;;;;;;;;4977276;28;20061;-69
2023/12/25 05:57:50;;;;;;;84.07;8.20;;;;;;;;;;4978976;28;20567;-68
2023/12/25 06:00:18;;;;;;;78.80;8.48;;;;;;;;;;4974655;28;20133;-60
2023/12/25 06:02:51;;;;;;;82.07;10.25;;;;;;;;;;4977401;28;20074;-58
2023/12/25 06:05:18;;;;;;;;;;;;;;;;;;4977328;28;20665;-68
2023/12/25 06:07:46;;;;;;;86.07;8.90;;;;;;;;;;4979041;28;19926;-68
2023/12/25 06:10:22;;;;;;;95.28;10.15;;;;;;;;;;4974257;28;20077;-68
2023/12/25 06:12:49;;;;;;;73.43;7.95;;;;;;;;;;4979975;28;20433;-68
2023/12/25 06:15:23;;;;;;;71.90;7.95;;;;;;;;;;4976209;28;20465;-68
2023/12/25 06:17:50;;;;;;;65.82;9.45;;;;;;;;;;4979232;28;20108;-68
2023/12/25 06:20:18;;;;;;;101.22;10.63;;;;;;;;;;4972839;28;20076;-68
2023/12/25 06:23:05;;;;;;;92.05;10.57;;;;;;;;;;4978430;28;20055;-68
2023/12/25 06:25:39;;;;;;;91.45;10.40;;;;;;;;;;4979327;28;20113;-68
2023/12/25 06:28:13;;;;;;;89.57;10.20;;;;;;;;;;4978820;28;20100;-68
2023/12/25 06:30:40;;;;;;;98.60;11.00;;;;;;;;;;4979414;28;20062;-58
2023/12/25 06:33:08;;;;;;;101.95;10.93;;;;;;;;;;4978817;28;20649;-63
2023/12/25 06:35:41;;;;;;;108.32;11.52;;;;;;;;;;4979623;28;20066;-62
2023/12/25 06:38:09;;;;;;;;;;;;;;;;;;4981139;28;20165;-62
2023/12/25 06:40:42;;;;;;;96.03;10.77;;;;;;;;;;4982327;28;19925;-62
2023/12/25 06:43:10;;;;;;;99.18;10.15;;;;;;;;;;4997542;28;20050;-61
2023/12/25 06:45:37;;;;;;;91.85;10.85;;;;;;;;;;4983351;28;20054;-62
2023/12/25 06:48:11;;;;;;;103.40;10.40;;;;;;;;;;4984993;28;20054;-60
2023/12/25 06:50:40;;;;;;;96.43;11.52;;;;;;;;;;4980507;28;20417;-60
2023/12/25 06:53:14;;;;;;;104.03;10.85;;;;;;;;;;4980471;28;20136;-60
2023/12/25 06:55:41;;;;;;;95.00;10.57;;;;;;;;;;4981346;28;20100;-60
2023/12/25 06:58:09;;;;;;;95.40;9.30;;;;;;;;;;4982004;28;20101;-63
2023/12/25 07:00:42;;;;;;;75.18;9.18;;;;;;;;;;4979796;28;20051;-60
2023/12/25 07:03:09;;;;;;;81.63;8.95;;;;;;;;;;4979602;28;20054;-60
2023/12/25 07:05:43;;;;;;;93.28;9.45;;;;;;;;;;4980479;28;20069;-60
2023/12/25 07:08:10;;;;;;;92.60;11.23;;;;;;;;;;4982356;28;20038;-60
2023/12/25 07:10:38;;;;;;;92.25;10.73;;;;;;;;;;4980352;28;20061;-60
2023/12/25 07:13:12;;;;;;;103.32;10.73;;;;;;;;;;4980785;28;20074;-60
2023/12/25 07:15:39;;;;;;;;;;;;;;;;;;4983514;28;20062;-63
2023/12/25 07:18:13;;;;;;;106.18;8.48;;;;;;;;;;4983173;28;19985;-63
2023/12/25 07:20:41;;;;;;;91.97;10.07;;;;;;;;;;4978875;28;20156;-63
2023/12/25 07:23:08;;;;;;;;;;;;;;;;;;4979493;28;20082;-63
2023/12/25 07:25:49;;;;;;;80.30;9.63;;;;;;;;;;4983358;28;19930;-60
2023/12/25 07:28:16;;;;;;;75.82;8.85;;;;;;;;;;4982906;28;20081;-61
2023/12/25 07:30:50;;;;;;;89.55;10.52;;;;;;;;;;4980717;28;20065;-63
2023/12/25 07:33:17;;;;;;;65.28;7.90;;;;;;;;;;4982993;28;20050;-63
2023/12/25 07:35:45;;;;;;;65.57;8.52;;;;;;;;;;4979742;28;20061;-63
2023/12/25 07:38:26;;;;;;;75.20;9.32;;;;;;;;;;4981726;28;20085;-64
2023/12/25 07:40:53;;;;;;;82.18;8.35;;;;;;;;;;4980577;28;20061;-63
2023/12/25 07:43:27;;;;;;;71.70;8.57;;;;;;;;;;4983536;28;20058;-63
2023/12/25 07:45:55;;;;;;;;;;;;;;;;;;4979370;28;20388;-60
2023/12/25 07:48:22;;;;;;;58.45;7.55;;;;;;;;;;4981126;28;21154;-59
2023/12/25 07:50:55;;;;;;;52.97;6.85;;;;;;;;;;4977780;28;20059;-58
2023/12/25 07:53:23;;;;;;;69.10;7.15;;;;;;;;;;4981803;28;20061;-60
2023/12/25 07:55:50;;;;;;;51.35;7.65;;;;;;;;;;4979503;28;20058;-52
2023/12/25 07:58:24;;;;;;;47.25;6.22;;;;;;;;;;4978379;28;20065;-64
2023/12/25 08:00:52;;;;;;;52.63;6.70;;;;;;;;;;4979455;28;20406;-64
2023/12/25 08:03:25;;;;;;;44.92;6.85;;;;;;;;;;4980525;28;20573;-63
2023/12/25 08:05:52;;;;;;;;;;;;;;;;;;4980485;28;21506;-64
2023/12/25 08:08:21;;;;;;;30.25;5.75;;;;;;;;;;4982395;28;19953;-64
2023/12/25 08:10:55;;;;;;;33.03;5.07;;;;;;;;;;4980021;28;20054;-63
2023/12/25 08:13:22;;;;;;;33.85;4.95;;;;;;;;;;4981277;28;20105;-53
2023/12/25 08:15:56;;;;;;;28.20;4.95;;;;;;;;;;4978527;28;20676;-49
2023/12/25 08:18:23;;;;;;;38.60;5.40;;;;;;;;;;4979615;28;20117;-48
2023/12/25 08:20:51;;;;;;;35.35;6.07;;;;;;;;;;4979306;28;20085;-49
2023/12/25 08:23:32;;;;;;;35.03;5.03;;;;;;;;;;4981816;28;20651;-59
2023/12/25 08:26:06;;;;;;;34.20;4.60;;;;;;;;;;4979302;28;20062;-60
2023/12/25 08:28:40;;;;;;;44.53;5.20;;;;;;;;;;4979543;28;20062;-61
2023/12/25 08:31:08;;;;;;;41.10;5.00;;;;;;;;;;4980410;28;20057;-61
2023/12/25 08:33:35;;;;;;;42.58;5.20;;;;;;;;;;4975274;28;20050;-61
2023/12/25 08:36:10;;;;;;;39.88;4.75;;;;;;;;;;4979761;28;20114;-61
2023/12/25 08:38:37;;;;;;;42.80;5.78;;;;;;;;;;4980946;28;20101;-61
2023/12/25 08:41:11;;;;;;;27.63;5.63;;;;;;;;;;4980174;28;20051;-64
2023/12/25 08:43:38;;;;;;;34.60;4.72;;;;;;;;;;4978983;28;20054;-64
2023/12/25 08:46:16;;;;;;;41.75;5.20;;;;;;;;;;4981556;28;20058;-65
2023/12/25 08:48:50;;;;;;;38.67;4.97;;;;;;;;;;4977323;28;20061;-65
2023/12/25 08:51:18;;;;;;;34.38;4.63;;;;;;;;;;4980604;28;20510;-61
2023/12/25 08:53:53;;;;;;;29.13;5.15;;;;;;;;;;4978740;28;20302;-64
2023/12/25 08:56:26;;;;;;;32.88;4.70;;;;;;;;;;4980798;28;20086;-60
2023/12/25 08:59:00;;;;;;;27.50;4.53;;;;;;;;;;4981783;28;20082;-57
2023/12/25 09:01:29;;;;;;;35.20;4.47;;;;;;;;;;4977688;28;20057;-60
2023/12/25 09:03:57;;;;;;;33.63;4.70;;;;;;;;;;4978001;28;20046;-59
2023/12/25 09:06:32;;;;;;;34.50;5.28;;;;;;;;;;4979919;28;20069;-59
2023/12/25 09:08:59;;;;;;;32.20;4.68;;;;;;;;;;4978290;28;20050;-59
2023/12/25 09:11:37;;;;;;;32.50;4.82;;;;;;;;;;4972694;28;20058;-62
2023/12/25 09:14:04;;;;;;;;;;;;;;;;;;4975128;28;20141;-62
2023/12/25 09:16:32;;;;;;;28.17;4.25;;;;;;;;;;4979357;28;19930;-62
2023/12/25 09:19:06;;;;;;;25.90;4.18;;;;;;;;;;4975850;28;20058;-62
2023/12/25 09:21:33;;;;;;;;;;;;;;;;;;4978651;28;20043;-62
2023/12/25 09:24:14;;;;;;;34.38;5.03;;;;;;;;;;4978136;28;20377;-67
2023/12/25 09:26:41;;;;;;;36.65;5.65;;;;;;;;;;4979682;28;20069;-68
2023/12/25 09:29:15;;;;;;;31.50;4.18;;;;;;;;;;4982108;28;20073;-67
2023/12/25 09:31:49;;;;;;;27.90;4.32;;;;;;;;;;4979061;28;20059;-68
2023/12/25 09:34:17;;;;;;;29.00;4.97;;;;;;;;;;4979206;28;20108;-67
2023/12/25 09:36:56;;;;;;;30.95;4.93;;;;;;;;;;4978871;28;20066;-67
2023/12/25 09:39:23;;;;;;;34.70;5.63;;;;;;;;;;4977066;28;20054;-64
2023/12/25 09:41:51;;;;;;;;;;;;;;;;;;4979886;28;20054;-64
2023/12/25 09:44:25;;;;;;;30.33;5.38;;;;;;;;;;4979554;28;20317;-63
2023/12/25 09:46:52;;;;;;;31.33;4.88;;;;;;;;;;4979420;28;20133;-63
2023/12/25 09:49:21;;;;;;;27.02;4.43;;;;;;;;;;4977855;28;20050;-67
2023/12/25 09:51:55;;;;;;;27.23;4.70;;;;;;;;;;4977936;28;20685;-63
2023/12/25 09:54:23;;;;;;;33.03;5.38;;;;;;;;;;4979800;28;20054;-63
2023/12/25 09:56:57;;;;;;;29.85;5.40;;;;;;;;;;4975462;28;20509;-63
2023/12/25 09:59:27;;;;;;;31.75;5.72;;;;;;;;;;4976412;28;20077;-63
2023/12/25 10:01:55;;;;;;;23.42;4.40;;;;;;;;;;4979754;28;20052;-63
2023/12/25 10:04:29;;;;;;;30.50;5.40;;;;;;;;;;4978533;28;21394;-63
2023/12/25 10:06:57;;;;;;;23.30;4.18;;;;;;;;;;4978269;28;20098;-61
2023/12/25 10:09:31;;;;;;;19.90;4.25;;;;;;;;;;4978029;28;20145;-61
2023/12/25 10:11:58;;;;;;;23.58;4.68;;;;;;;;;;4979341;28;20698;-61
2023/12/25 10:14:25;;;;;;;24.00;4.40;;;;;;;;;;4977773;28;20046;-60
2023/12/25 10:17:00;;;;;;;30.17;4.75;;;;;;;;;;4978573;28;20046;-63
2023/12/25 10:19:27;;;;;;;;;;;;;;;;;;4978689;28;20106;-60
2023/12/25 10:22:00;;;;;;;24.20;4.30;;;;;;;;;;4977696;28;20008;-61
2023/12/25 10:24:34;;;;;;;21.23;4.63;;;;;;;;;;4991570;28;20062;-61
2023/12/25 10:27:10;;;;;;;33.13;5.05;;;;;;;;;;4976923;28;20050;-62
2023/12/25 10:29:37;;;;;;;30.70;4.78;;;;;;;;;;4979576;28;20054;-62
2023/12/25 10:32:17;;;;;;;30.25;5.10;;;;;;;;;;4972622;28;20506;-62
2023/12/25 10:34:45;;;;;;;30.73;4.93;;;;;;;;;;4975947;28;20082;-56
2023/12/25 10:37:19;;;;;;;37.50;5.13;;;;;;;;;;4976185;28;21625;-52
2023/12/25 10:39:46;;;;;;;25.17;4.55;;;;;;;;;;4977643;28;20050;-56
2023/12/25 10:42:14;;;;;;;23.38;5.00;;;;;;;;;;4976185;28;20529;-53
2023/12/25 10:44:49;;;;;;;32.33;6.40;;;;;;;;;;4981092;28;20461;-60
2023/12/25 10:47:16;;;;;;;24.73;4.47;;;;;;;;;;4977184;28;20042;-62
2023/12/25 10:49:51;;;;;;;18.17;3.70;;;;;;;;;;4979075;28;20137;-48
2023/12/25 10:52:18;;;;;;;;;;;;;;;;;;4976871;28;20054;-47
2023/12/25 10:54:53;;;;;;;28.00;5.07;;;;;;;;;;4978540;28;20360;-52
2023/12/25 10:57:21;;;;;;;23.75;4.70;;;;;;;;;;4976884;28;20611;-47
2023/12/25 10:59:49;;;;;;;19.42;4.65;;;;;;;;;;4976815;28;20058;-48
2023/12/25 11:02:23;;;;;;;24.50;4.78;;;;;;;;;;4979176;28;20655;-50
2023/12/25 11:04:50;;;;;;;24.63;4.45;;;;;;;;;;4976451;28;20061;-61
2023/12/25 11:07:24;;;;;;;22.73;4.72;;;;;;;;;;4974203;28;20094;-62
2023/12/25 11:09:52;;;;;;;23.17;4.45;;;;;;;;;;4973653;28;20082;-62
2023/12/25 11:12:27;;;;;;;33.92;5.03;;;;;;;;;;4968330;28;20069;-62
2023/12/25 11:14:54;;;;;;;37.95;5.30;;;;;;;;;;4972875;28;20398;-63
2023/12/25 11:17:21;;;;;;;;;;;;;;;;;;4974928;28;20058;-53
2023/12/25 11:19:56;;;;;;;23.10;4.47;;;;;;;;;;4974215;28;19936;-54
2023/12/25 11:22:30;;;;;;;31.85;4.78;;;;;;;;;;4978781;28;20127;-52
2023/12/25 11:25:21;;;;;;;28.60;4.43;;;;;;;;;;4676471;28;8760536;-56
2023/12/25 11:27:55;;;;;;;19.42;4.63;;;;;;;;;;4983268;28;20123;-55
2023/12/25 11:30:29;;;;;;;31.35;5.78;;;;;;;;;;4980759;28;20054;-54
2023/12/25 11:32:56;;;;;;;22.63;4.15;;;;;;;;;;4981567;28;20430;-63
2023/12/25 11:35:32;;;;;;;19.35;4.10;;;;;;;;;;4981993;28;20166;-62
2023/12/25 11:38:21;;;;;;;18.90;4.18;;;;;;;;;;4981941;28;20050;-63
2023/12/25 11:41:00;;;;;;;16.83;4.85;;;;;;;;;;4979779;28;20062;-63
2023/12/25 11:43:30;;;;;;;14.82;4.13;;;;;;;;;;4980198;28;20073;-50
2023/12/25 11:46:04;;;;;;;16.48;4.53;;;;;;;;;;4977703;28;20152;-50
2023/12/25 11:48:32;;;;;;;14.85;4.10;;;;;;;;;;4977081;28;20054;-50
2023/12/25 11:51:01;;;;;;;19.65;4.15;;;;;;;;;;4981282;28;20065;-52
2023/12/25 11:53:36;;;;;;;10.55;3.45;;;;;;;;;;4981025;28;20425;-53
2023/12/25 11:56:05;;;;;;;16.98;3.58;;;;;;;;;;4978201;28;20473;-52
2023/12/25 11:58:40;;;;;;;8.05;3.45;;;;;;;;;;4980404;28;20495;-53
2023/12/25 12:01:07;;;;;;;10.98;3.47;;;;;;;;;;4980026;28;23296;-61
2023/12/25 12:03:34;;;;;;;9.90;3.28;;;;;;;;;;4979973;28;20050;-62
2023/12/25 12:06:08;;;;;;;11.40;3.33;;;;;;;;;;4979628;28;20050;-62
2023/12/25 12:08:36;;;;;;;;;;;;;;;;;;4983400;28;20520;-62
2023/12/25 12:11:10;;;;;;;9.07;3.05;;;;;;;;;;4976163;28;20374;-54
2023/12/25 12:13:37;;;;;;;10.25;3.28;;;;;;;;;;4975056;28;20510;-55
2023/12/25 12:16:05;;;;;;;5.80;3.10;;;;;;;;;;4980329;28;20054;-55
2023/12/25 12:18:39;;;;;;;8.52;3.65;;;;;;;;;;4981566;28;20050;-51
2023/12/25 12:21:07;;;;;;;11.25;3.42;;;;;;;;;;4981960;28;20414;-53
2023/12/25 12:23:53;;;;;;;11.05;3.80;;;;;;;;;;4979443;28;20459;-53
2023/12/25 12:26:27;;;;;;;10.13;3.67;;;;;;;;;;4979473;28;20128;-50
2023/12/25 12:29:01;;;;;;;6.18;3.20;;;;;;;;;;4979737;28;20053;-63
2023/12/25 12:31:29;;;;;;;9.25;3.40;;;;;;;;;;4977809;28;20050;-63
2023/12/25 12:34:03;;;;;;;7.18;3.67;;;;;;;;;;4978096;28;20054;-64
2023/12/25 12:36:31;;;;;;;5.43;2.90;;;;;;;;;;4976645;28;20375;-63
2023/12/25 12:38:58;;;;;;;7.65;3.63;;;;;;;;;;4981484;28;20482;-58
2023/12/25 12:41:32;;;;;;;9.95;3.33;;;;;;;;;;4977247;28;20545;-56
2023/12/25 12:44:00;;;;;;;6.70;3.25;;;;;;;;;;4980964;28;20142;-61
2023/12/25 12:46:28;;;;;;;7.35;3.08;;;;;;;;;;4974386;28;20054;-62
2023/12/25 12:49:01;;;;;;;7.15;3.05;;;;;;;;;;4981621;28;20494;-61
2023/12/25 12:51:29;;;;;;;10.90;3.10;;;;;;;;;;4977487;28;20472;-61
2023/12/25 12:53:56;;;;;;;9.57;3.83;;;;;;;;;;4979692;28;20422;-61
2023/12/25 12:56:30;;;;;;;10.73;3.15;;;;;;;;;;4979968;28;20394;-61
2023/12/25 12:58:57;;;;;;;13.43;3.17;;;;;;;;;;4979789;28;20082;-62
2023/12/25 13:01:31;;;;;;;7.93;3.28;;;;;;;;;;4978118;28;20128;-63
2023/12/25 13:03:58;;;;;;;6.38;2.85;;;;;;;;;;4976038;28;20055;-63
2023/12/25 13:06:26;;;;;;;5.80;3.05;;;;;;;;;;4977978;28;20081;-63
2023/12/25 13:09:03;;;;;;;8.13;3.00;;;;;;;;;;4980740;28;20506;-61
2023/12/25 13:11:30;;;;;;;7.57;2.42;;;;;;;;;;4979747;28;20517;-64
2023/12/25 13:14:04;;;;;;;7.78;3.05;;;;;;;;;;4979329;28;20054;-64
2023/12/25 13:16:33;;;;;;;9.32;3.38;;;;;;;;;;4978387;28;20355;-65
2023/12/25 13:19:00;;;;;;;7.13;3.25;;;;;;;;;;4978907;28;20038;-65
2023/12/25 13:21:33;;;;;;;6.28;3.15;;;;;;;;;;4977486;28;20050;-64
2023/12/25 13:24:07;;;;;;;5.40;2.83;;;;;;;;;;4977812;28;20070;-64
2023/12/25 13:26:48;;;;;;;12.05;3.10;;;;;;;;;;4978343;28;20560;-61
2023/12/25 13:29:15;;;;;;;6.65;3.25;;;;;;;;;;4979259;28;20054;-61
2023/12/25 13:31:49;;;;;;;6.65;3.88;;;;;;;;;;4978976;28;20058;-62
2023/12/25 13:34:24;;;;;;;7.28;3.17;;;;;;;;;;4980855;28;20071;-61
2023/12/25 13:36:58;;;;;;;7.15;3.30;;;;;;;;;;4977696;28;20076;-63
2023/12/25 13:39:26;;;;;;;5.90;3.40;;;;;;;;;;4976680;28;20050;-64
2023/12/25 13:41:53;;;;;;;7.47;2.97;;;;;;;;;;4977606;28;20506;-64
2023/12/25 13:44:26;;;;;;;8.32;3.30;;;;;;;;;;4980359;28;20132;-64
2023/12/25 13:46:54;;;;;;;8.35;3.20;;;;;;;;;;4976426;28;20090;-64
2023/12/25 13:49:21;;;;;;;10.95;3.42;;;;;;;;;;4980635;28;20066;-63
2023/12/25 13:51:54;;;;;;;7.18;3.25;;;;;;;;;;4976716;28;20469;-63
2023/12/25 13:54:21;;;;;;;9.02;3.42;;;;;;;;;;4978623;28;20050;-61
2023/12/25 13:56:56;;;;;;;7.40;3.90;;;;;;;;;;4980010;28;20054;-62
2023/12/25 13:59:23;;;;;;;8.27;3.55;;;;;;;;;;4979561;28;20411;-62
2023/12/25 14:01:51;;;;;;;7.20;3.13;;;;;;;;;;4970112;28;20070;-62
2023/12/25 14:04:24;;;;;;;7.80;3.35;;;;;;;;;;4977594;28;20070;-63
2023/12/25 14:06:52;;;;;;;16.05;3.72;;;;;;;;;;4975396;28;20130;-49
2023/12/25 14:09:27;;;;;;;5.25;2.45;;;;;;;;;;4979221;28;20113;-62
2023/12/25 14:11:54;;;;;;;10.80;3.10;;;;;;;;;;4975960;28;20067;-63
2023/12/25 14:14:21;;;;;;;4.35;2.60;;;;;;;;;;4979313;28;20533;-62
2023/12/25 14:16:55;;;;;;;5.50;2.78;;;;;;;;;;4975998;28;20112;-62
2023/12/25 14:19:22;;;;;;;4.63;2.50;;;;;;;;;;4979363;28;20050;-63
2023/12/25 14:21:56;;;;;;;7.03;2.63;;;;;;;;;;4975863;28;20093;-63
2023/12/25 14:24:38;;;;;;;10.52;2.95;;;;;;;;;;4978307;28;20069;-52
2023/12/25 14:27:12;;;;;;;3.50;2.20;;;;;;;;;;4976725;28;20117;-51
2023/12/25 14:29:39;;;;;;;4.57;2.20;;;;;;;;;;4977085;28;20086;-52
2023/12/25 14:32:07;;;;;;;;;;;;;;;;;;4974784;28;21782;-52
2023/12/25 14:34:40;;;;;;;6.47;2.38;;;;;;;;;;4976927;28;19930;-49
2023/12/25 14:37:08;;;;;;;6.68;2.72;;;;;;;;;;4978882;28;20117;-65
2023/12/25 14:39:41;;;;;;;4.38;2.05;;;;;;;;;;4975425;28;20066;-66
2023/12/25 14:42:08;;;;;;;2.95;1.90;;;;;;;;;;4977470;28;20057;-65
2023/12/25 14:44:36;;;;;;;4.70;2.25;;;;;;;;;;4979056;28;20066;-65
2023/12/25 14:47:09;;;;;;;4.47;2.38;;;;;;;;;;4974849;28;20061;-66
2023/12/25 14:49:38;;;;;;;4.55;2.28;;;;;;;;;;4978845;28;20084;-66
2023/12/25 14:52:13;;;;;;;4.82;2.38;;;;;;;;;;4978487;28;20164;-53
2023/12/25 14:54:40;;;;;;;6.18;2.95;;;;;;;;;;4979814;28;20073;-53
2023/12/25 14:57:08;;;;;;;4.88;2.30;;;;;;;;;;4980522;28;20062;-50
2023/12/25 14:59:41;;;;;;;5.40;2.15;;;;;;;;;;4981454;28;20396;-51